Time;durP1;ratioP1;P1;durP2;ratioP2;P2;SDS_P1;SDS_P2;PMS_P1;PMS_P2;Temp;Humidity;BMP_temperature;BMP_pressure;BME280_temperature;BME280_humidity;BME280_pressure;Samples;Min_cycle;Max_cycle;Signal;HPM_P1;HPM_P2
2023/10/27 00:02:52;;;;;;;4.33;2.10;;;12.60;99.90;;;10.98;100.00;98314.59;10303025;28;97558;-84
2023/10/27 00:07:57;;;;;;;5.60;1.90;;;12.60;99.90;;;10.98;100.00;98297.84;10321613;28;97030;-84
2023/10/27 00:13:01;;;;;;;4.20;2.33;;;12.60;99.90;;;11.01;100.00;98307.19;10347360;28;97258;-84
2023/10/27 00:18:04;;;;;;;5.77;2.17;;;12.60;99.90;;;11.03;100.00;98297.16;10332846;28;96657;-84
2023/10/27 00:23:08;;;;;;;4.37;2.17;;;12.60;99.90;;;11.06;100.00;98286.09;10320867;28;96619;-84
2023/10/27 00:28:12;;;;;;;5.47;2.10;;;12.60;99.90;;;11.08;100.00;98281.38;10334860;28;97386;-84
2023/10/27 00:33:16;;;;;;;4.33;2.43;;;12.60;99.90;;;11.09;100.00;98272.38;10314963;28;96885;-84
2023/10/27 00:38:20;;;;;;;4.60;2.67;;;12.60;99.90;;;11.10;100.00;98277.50;10317383;28;96669;-84
2023/10/27 00:43:24;;;;;;;20.77;3.33;;;12.70;99.90;;;11.09;100.00;98261.72;10347083;28;96579;-84
2023/10/27 00:48:28;;;;;;;12.87;2.70;;;12.70;99.90;;;11.11;100.00;98259.69;10305454;28;97446;-84
2023/10/27 00:53:33;;;;;;;3.67;2.30;;;12.70;99.90;;;11.13;100.00;98263.75;10288892;28;96651;-84
2023/10/27 00:58:38;;;;;;;25.90;4.20;;;12.70;99.90;;;11.13;100.00;98268.25;10332790;28;96565;-84
2023/10/27 01:03:43;;;;;;;7.17;2.90;;;12.70;99.90;;;11.15;100.00;98276.81;10288403;28;96744;-84
2023/10/27 01:08:47;;;;;;;13.50;2.93;;;12.80;99.90;;;11.14;100.00;98276.00;10314749;28;97425;-84
2023/10/27 01:13:55;;;;;;;8.13;2.60;;;12.80;99.90;;;11.16;100.00;98273.16;10342092;28;96673;-84
2023/10/27 01:18:59;;;;;;;5.53;2.83;;;12.70;99.90;;;11.19;100.00;98268.19;10298357;28;96911;-83
2023/10/27 01:24:04;;;;;;;6.30;2.90;;;12.80;99.90;;;11.18;100.00;98255.13;10319919;28;96537;-84
2023/10/27 01:29:08;;;;;;;7.53;3.20;;;12.80;99.90;;;11.21;100.00;98249.34;10298229;28;96581;-86
2023/10/27 01:34:12;;;;;;;4.90;3.13;;;12.80;99.90;;;11.23;100.00;98244.66;10332891;28;96789;-84
2023/10/27 01:39:16;;;;;;;9.03;3.67;;;12.80;99.90;;;11.24;100.00;98235.63;10322154;28;97260;-83
2023/10/27 01:44:20;;;;;;;5.03;2.93;;;12.80;99.90;;;11.28;100.00;98236.03;10355587;28;96612;-84
2023/10/27 01:49:24;;;;;;;6.97;3.77;;;12.80;99.90;;;11.30;100.00;98229.44;10329502;28;96708;-85
2023/10/27 01:54:27;;;;;;;10.33;4.00;;;12.90;99.90;;;11.34;100.00;98221.84;10311247;28;96648;-85
2023/10/27 01:59:31;;;;;;;8.63;4.27;;;12.90;99.90;;;11.39;100.00;98221.97;10320238;28;98222;-85
2023/10/27 02:04:35;;;;;;;19.57;4.70;;;13.00;99.90;;;11.43;100.00;98221.31;10304408;28;96734;-85
2023/10/27 02:09:39;;;;;;;6.80;3.87;;;13.00;99.90;;;11.45;100.00;98203.28;10348114;28;96450;-86
2023/10/27 02:14:43;;;;;;;10.07;4.40;;;13.00;99.90;;;11.51;100.00;98193.59;10333652;28;96774;-85
2023/10/27 02:19:47;;;;;;;11.60;4.40;;;13.10;99.90;;;11.54;100.00;98193.16;10345408;28;96801;-86
2023/10/27 02:24:51;;;;;;;9.90;4.63;;;13.10;99.90;;;11.57;100.00;98186.56;10331425;28;97869;-86
2023/10/27 02:29:55;;;;;;;9.67;4.70;;;13.10;99.90;;;11.63;100.00;98188.34;10327319;28;96661;-86
2023/10/27 02:34:58;;;;;;;9.63;4.87;;;13.20;99.90;;;11.64;100.00;98180.16;10307846;28;98185;-85
2023/10/27 02:40:03;;;;;;;10.77;4.30;;;13.20;99.90;;;11.69;100.00;98192.78;10334073;28;96650;-86
2023/10/27 02:45:07;;;;;;;7.57;4.43;;;13.20;99.90;;;11.70;100.00;98186.44;10309093;28;96659;-85
2023/10/27 02:50:11;;;;;;;13.00;5.23;;;13.20;99.90;;;11.68;100.00;98169.88;10326949;28;97754;-85
2023/10/27 02:55:15;;;;;;;8.03;4.90;;;13.20;99.90;;;11.69;100.00;98171.50;10294190;28;96721;-86
2023/10/27 03:00:19;;;;;;;8.93;5.03;;;13.30;99.90;;;11.71;100.00;98164.94;10315634;28;96620;-85
2023/10/27 03:05:22;;;;;;;7.57;4.27;;;13.30;99.90;;;11.73;100.00;98157.53;10323981;28;96551;-85
2023/10/27 03:10:26;;;;;;;10.43;4.90;;;13.30;99.90;;;11.74;100.00;98158.31;10297024;28;97306;-85
2023/10/27 03:15:30;;;;;;;9.53;4.97;;;13.30;99.90;;;11.76;100.00;98138.47;10310793;28;96600;-85
2023/10/27 03:20:33;;;;;;;8.37;4.53;;;13.30;99.90;;;11.78;100.00;98133.72;10330512;28;96553;-85
2023/10/27 03:25:37;;;;;;;7.53;4.80;;;13.30;99.90;;;11.79;100.00;98114.03;10326313;28;98219;-85
2023/10/27 03:30:42;;;;;;;17.40;5.80;;;13.30;99.90;;;11.82;100.00;98112.00;10315583;28;96634;-85
2023/10/27 03:35:46;;;;;;;8.10;4.77;;;13.40;99.90;;;11.84;100.00;98104.59;10312588;28;97765;-85
2023/10/27 03:40:50;;;;;;;14.97;5.10;;;13.40;99.90;;;11.87;100.00;98090.84;10337389;28;96689;-85
2023/10/27 03:45:54;;;;;;;10.47;5.70;;;13.40;99.90;;;11.91;100.00;98094.66;10313617;28;96720;-85
2023/10/27 03:50:57;;;;;;;7.67;4.47;;;13.40;99.90;;;11.93;100.00;98076.63;10337551;28;96686;-86
2023/10/27 03:56:01;;;;;;;9.20;5.60;;;13.50;99.90;;;11.96;100.00;98065.53;10311742;28;98195;-86
2023/10/27 04:01:05;;;;;;;12.33;5.00;;;13.50;99.90;;;11.97;100.00;98056.50;10295933;28;96694;-86
2023/10/27 04:06:11;;;;;;;37.87;6.43;;;13.50;99.90;;;11.98;100.00;98045.63;10337765;28;96610;-86
2023/10/27 04:11:15;;;;;;;9.63;5.37;;;13.50;99.90;;;12.05;100.00;98034.84;10299477;28;96667;-86
2023/10/27 04:16:18;;;;;;;8.83;4.73;;;13.50;99.90;;;12.05;100.00;98027.72;10305422;28;96655;-87
2023/10/27 04:21:22;;;;;;;12.23;5.53;;;13.60;99.90;;;12.04;100.00;98020.75;10307041;28;96564;-88
2023/10/27 04:26:27;;;;;;;16.90;5.70;;;13.60;99.90;;;12.09;100.00;97997.94;10299955;28;98342;-87
2023/10/27 04:31:30;;;;;;;8.87;4.83;;;13.60;99.90;;;12.11;100.00;97998.53;10316239;28;96642;-87
2023/10/27 04:36:34;;;;;;;11.17;4.83;;;13.60;99.90;;;12.13;100.00;97980.47;10301200;28;98812;-88
2023/10/27 04:41:38;;;;;;;13.00;4.57;;;13.60;99.90;;;12.17;100.00;97973.63;10316761;28;96519;-88
2023/10/27 04:46:41;;;;;;;10.20;5.33;;;13.70;99.90;;;12.17;100.00;97960.31;10311260;28;96715;-89
2023/10/27 04:51:45;;;;;;;10.47;4.77;;;13.70;99.90;;;12.23;100.00;97946.88;10303083;28;96697;-88
2023/10/27 04:56:49;;;;;;;14.87;6.80;;;13.70;99.90;;;12.25;100.00;97941.34;10312803;28;96602;-89
2023/10/27 05:01:53;;;;;;;13.40;6.40;;;13.70;99.90;;;12.25;100.00;97926.19;10321529;28;98174;-88
2023/10/27 05:06:58;;;;;;;18.13;6.03;;;13.70;99.90;;;12.25;100.00;97917.38;10344446;28;96582;-89
2023/10/27 05:12:03;;;;;;;25.17;7.10;;;13.70;99.90;;;12.28;100.00;97908.91;10290086;28;96709;-90
2023/10/27 05:17:06;;;;;;;22.03;5.07;;;13.80;99.90;;;12.32;100.00;97899.41;10321576;28;99236;-90
2023/10/27 05:22:10;;;;;;;10.93;4.30;;;13.80;99.90;;;12.46;100.00;97899.94;10309514;28;97477;-91
2023/10/27 05:27:14;;;;;;;4.60;2.17;;;13.90;99.90;;;12.55;100.00;97890.56;10320276;28;97471;-94
2023/10/27 05:32:18;;;;;;;3.57;1.97;;;14.00;99.90;;;12.65;100.00;97871.28;10298727;28;97110;-92
2023/10/27 05:37:22;;;;;;;2.30;1.40;;;14.10;99.90;;;12.79;100.00;97864.63;10342807;28;98745;-94
2023/10/27 05:42:26;;;;;;;2.03;1.37;;;14.20;99.90;;;12.88;100.00;97865.03;10346184;28;96751;-94
2023/10/27 05:47:30;;;;;;;2.00;1.20;;;14.30;99.90;;;12.92;100.00;97852.88;10338430;28;96610;-95
2023/10/27 05:52:34;;;;;;;4.57;1.10;;;14.40;99.90;;;12.95;100.00;97845.19;10328618;28;97984;-95
2023/10/27 05:57:38;;;;;;;2.10;1.23;;;14.40;99.90;;;12.96;100.00;97836.16;10352961;28;97230;-94
2023/10/27 06:02:42;;;;;;;1.10;0.70;;;14.40;99.90;;;12.98;100.00;97823.38;10314529;28;96688;-94
2023/10/27 06:07:45;;;;;;;1.80;1.30;;;14.50;99.90;;;13.02;100.00;97816.53;10321759;28;96838;-94
2023/10/27 06:12:49;;;;;;;2.10;1.05;;;14.50;99.90;;;13.02;100.00;97824.53;10338391;28;96580;-94
2023/10/27 06:17:53;;;;;;;7.13;1.30;;;14.50;99.90;;;13.04;100.00;97824.28;10319320;28;96931;-93
2023/10/27 06:22:56;;;;;;;3.50;1.10;;;14.50;99.90;;;12.98;100.00;97796.72;10367734;28;96487;-92
2023/10/27 06:28:00;;;;;;;5.18;1.48;;;14.50;99.90;;;13.02;100.00;97800.53;10317117;28;96551;-91
2023/10/27 06:33:04;;;;;;;2.97;1.20;;;14.40;99.90;;;13.04;100.00;97785.09;10346093;28;98151;-92
2023/10/27 06:38:08;;;;;;;3.22;1.70;;;14.40;99.90;;;13.03;100.00;97788.81;10329176;28;96716;-90
2023/10/27 06:43:11;;;;;;;2.42;1.40;;;14.40;99.90;;;13.03;100.00;97782.69;10321311;28;97492;-92
2023/10/27 06:48:15;;;;;;;2.55;1.88;;;14.50;99.90;;;13.05;100.00;97770.72;10337624;28;97295;-91
2023/10/27 06:53:18;;;;;;;2.55;1.83;;;14.50;99.90;;;13.08;100.00;97778.25;10334394;28;96724;-90
2023/10/27 06:58:22;;;;;;;3.75;1.92;;;14.50;99.90;;;13.08;100.00;97775.56;10318673;28;96639;-90
2023/10/27 07:03:27;;;;;;;2.57;1.67;;;14.50;99.90;;;13.10;100.00;97768.13;10298819;28;98380;-91
2023/10/27 07:08:37;;;;;;;2.97;1.88;;;14.50;99.90;;;13.11;100.00;97745.75;10299636;28;96652;-91
2023/10/27 07:13:41;;;;;;;3.63;2.00;;;14.50;99.90;;;13.11;100.00;97753.75;10340707;28;97257;-89
2023/10/27 07:18:45;;;;;;;2.60;1.77;;;14.50;99.90;;;13.12;100.00;97754.56;10341555;28;96669;-90
2023/10/27 07:23:49;;;;;;;10.65;2.60;;;14.50;99.90;;;13.15;100.00;97731.94;10314391;28;97589;-88
2023/10/27 07:28:53;;;;;;;7.43;3.00;;;14.50;99.90;;;13.18;100.00;97744.78;10318998;28;96455;-89
2023/10/27 07:33:56;;;;;;;3.38;2.72;;;14.50;99.90;;;13.21;100.00;97726.47;10329690;28;98430;-88
2023/10/27 07:39:00;;;;;;;5.03;2.80;;;14.60;99.90;;;13.21;100.00;97704.31;10333247;28;96524;-88
2023/10/27 07:44:05;;;;;;;6.43;2.95;;;14.60;99.90;;;13.21;100.00;97694.47;10305943;28;96473;-88
2023/10/27 07:49:10;;;;;;;5.07;3.00;;;14.60;99.90;;;13.23;100.00;97695.00;10304796;28;96757;-88
2023/10/27 07:54:14;;;;;;;3.63;2.67;;;14.60;99.90;;;13.26;100.00;97693.72;10326681;28;96793;-88
2023/10/27 07:59:18;;;;;;;3.17;2.60;;;14.70;99.90;;;13.28;100.00;97683.63;10342168;28;97422;-88
2023/10/27 08:04:23;;;;;;;4.85;2.65;;;14.70;99.90;;;13.32;100.00;97684.75;10326333;28;97104;-89
2023/10/27 08:09:29;;;;;;;3.35;2.85;;;14.70;99.90;;;13.35;100.00;97681.56;10336906;28;96748;-88
2023/10/27 08:14:33;;;;;;;4.47;3.40;;;14.70;99.90;;;13.35;100.00;97673.56;10306894;28;97960;-87
2023/10/27 08:19:39;;;;;;;3.50;2.47;;;14.70;99.90;;;13.34;100.00;97656.75;10314307;28;96911;-88
2023/10/27 08:24:43;;;;;;;4.00;3.35;;;14.70;99.90;;;13.36;100.00;97640.50;10339760;28;98098;-88
2023/10/27 08:29:47;;;;;;;3.63;3.05;;;14.80;99.90;;;13.35;100.00;97629.03;10303326;28;97435;-89
2023/10/27 08:34:50;;;;;;;3.60;3.13;;;14.80;99.90;;;13.35;100.00;97617.56;10337362;28;98417;-87
2023/10/27 08:39:54;;;;;;;6.43;3.60;;;14.80;99.90;;;13.38;100.00;97619.75;10319070;28;96584;-89
2023/10/27 08:44:58;;;;;;;5.10;2.63;;;14.80;99.90;;;13.36;100.00;97595.16;10306257;28;96649;-87
2023/10/27 08:50:04;;;;;;;5.97;2.67;;;14.80;99.90;;;13.38;100.00;97571.72;10312272;28;98101;-88
2023/10/27 08:55:10;;;;;;;5.82;2.13;;;14.80;99.90;;;13.39;100.00;97568.00;10329759;28;96717;-88
2023/10/27 09:00:16;;;;;;;6.05;3.38;;;14.80;99.90;;;13.40;100.00;97553.59;10336134;28;96711;-87
2023/10/27 09:05:21;;;;;;;6.80;4.23;;;14.80;99.90;;;13.40;100.00;97534.94;10287748;28;97587;-89
2023/10/27 09:10:26;;;;;;;5.53;3.15;;;14.80;99.90;;;13.41;100.00;97533.88;10329052;28;96775;-88
2023/10/27 09:15:48;;;;;;;5.10;2.25;;;14.80;99.90;;;13.44;100.00;97524.56;10348630;28;96588;-88
2023/10/27 09:20:53;;;;;;;5.95;2.05;;;14.90;99.90;;;13.44;100.00;97517.38;10306989;28;96569;-88
2023/10/27 09:25:57;;;;;;;3.03;2.00;;;14.80;99.90;;;13.45;100.00;97504.84;10312785;28;96556;-88
2023/10/27 09:31:00;;;;;;;4.50;2.40;;;14.90;99.90;;;13.48;100.00;97499.00;10316608;28;97094;-87
2023/10/27 09:36:08;;;;;;;3.55;1.92;;;14.90;99.90;;;13.51;100.00;97485.97;10346205;28;97877;-88
2023/10/27 09:41:14;;;;;;;5.60;2.30;;;14.90;99.90;;;13.51;100.00;97480.63;10341430;28;97726;-87
2023/10/27 09:46:18;;;;;;;3.63;2.05;;;14.90;99.90;;;13.57;100.00;97476.16;10346090;28;96693;-87
2023/10/27 09:51:25;;;;;;;3.53;2.10;;;15.00;99.90;;;13.61;100.00;97459.38;10297946;28;98394;-88
2023/10/27 09:56:29;;;;;;;4.80;2.78;;;15.00;99.90;;;13.66;100.00;97455.94;10347523;28;96950;-87
2023/10/27 10:01:34;;;;;;;3.08;1.98;;;15.10;99.90;;;13.68;100.00;97435.16;10322491;28;96850;-87
2023/10/27 10:06:38;;;;;;;5.15;2.20;;;15.10;99.90;;;13.70;100.00;97426.88;10332841;27;96885;-87
2023/10/27 10:11:54;;;;;;;3.75;2.05;;;15.10;99.90;;;13.73;100.00;97415.69;10334909;28;96621;-87
2023/10/27 10:16:59;;;;;;;5.28;2.05;;;15.10;99.90;;;13.73;100.00;97407.69;10316651;28;96556;-88
2023/10/27 10:22:02;;;;;;;4.25;1.75;;;15.10;99.90;;;13.76;100.00;97415.19;10323359;28;96627;-87
2023/10/27 10:27:07;;;;;;;6.40;2.10;;;15.20;99.90;;;13.77;100.00;97398.91;10328438;28;96824;-87
2023/10/27 10:32:36;;;;;;;3.25;1.90;;;15.20;99.90;;;13.83;100.00;97378.41;10313786;28;98185;-87
2023/10/27 10:37:40;;;;;;;4.95;1.88;;;15.20;99.90;;;13.87;100.00;97388.31;10340627;28;96777;-87
2023/10/27 10:43:23;;;;;;;4.63;2.53;;;15.30;99.90;;;13.93;100.00;97373.13;10323418;28;96993;-87
2023/10/27 10:48:30;;;;;;;4.47;2.75;;;15.30;99.90;;;14.00;100.00;97376.38;10336403;28;96648;-88
2023/10/27 10:53:34;;;;;;;7.78;2.70;;;15.40;99.90;;;14.06;100.00;97377.22;10299515;28;98477;-89
2023/10/27 10:58:40;;;;;;;5.97;2.45;;;15.40;99.90;;;14.10;100.00;97355.06;10347573;28;96519;-89
2023/10/27 11:03:50;;;;;;;5.53;2.65;;;15.50;99.90;;;14.13;100.00;97385.78;10292423;28;96943;-90
2023/10/27 11:08:55;;;;;;;2.17;1.27;;;15.50;99.90;;;14.15;100.00;97395.16;10316778;28;96502;-89
2023/10/27 11:13:59;;;;;;;3.92;1.90;;;15.50;99.90;;;14.12;100.00;97378.84;10322981;28;97226;-90
2023/10/27 11:19:03;;;;;;;7.65;4.57;;;15.50;99.90;;;14.15;100.00;97392.50;10301623;28;98502;-88
2023/10/27 11:24:08;;;;;;;2.28;1.42;;;15.60;99.90;;;14.20;100.00;97370.31;10316745;28;97427;-85
2023/10/27 11:29:13;;;;;;;2.40;1.08;;;15.60;99.90;;;14.27;100.00;97408.28;10349804;28;96503;-85
2023/10/27 11:34:27;;;;;;;1.10;1.00;;;15.60;99.90;;;14.31;100.00;97429.94;10316643;28;96965;-85
2023/10/27 11:39:34;;;;;;;1.17;1.05;;;15.70;99.90;;;14.30;100.00;97452.38;10337990;28;97205;-87
2023/10/27 11:44:42;;;;;;;1.25;0.80;;;15.70;99.90;;;14.24;100.00;97427.50;10334172;28;96737;-86
2023/10/27 11:49:46;;;;;;;0.75;0.60;;;15.60;99.90;;;14.18;100.00;97386.63;10300945;28;96677;-86
2023/10/27 11:54:50;;;;;;;0.98;0.70;;;15.60;99.90;;;14.10;100.00;97381.78;10307417;28;96771;-87
2023/10/27 11:59:54;;;;;;;2.25;0.60;;;15.50;99.90;;;14.07;100.00;97400.97;10344775;28;97344;-87
2023/10/27 12:04:58;;;;;;;2.65;0.65;;;15.50;99.90;;;14.03;100.00;97375.84;10341751;28;97674;-87
2023/10/27 12:10:09;;;;;;;1.70;0.82;;;15.40;99.90;;;14.00;100.00;97376.38;10354289;28;96787;-87
2023/10/27 12:15:15;;;;;;;2.97;0.40;;;15.40;99.90;;;14.00;100.00;97434.31;10305919;28;96552;-86
2023/10/27 12:20:18;;;;;;;1.65;0.90;;;15.40;99.90;;;13.97;100.00;97472.19;10316807;28;96554;-86
2023/10/27 12:25:22;;;;;;;0.50;0.40;;;15.40;99.90;;;13.93;100.00;97482.59;10295159;28;97675;-86
2023/10/27 12:30:27;;;;;;;1.20;0.45;;;15.40;99.90;;;13.87;100.00;97472.94;10259870;28;96498;-85
2023/10/27 12:35:31;;;;;;;1.08;0.55;;;15.30;99.90;;;13.81;100.00;97496.09;10291507;28;96423;-84
2023/10/27 12:40:36;;;;;;;0.60;0.20;;;15.20;99.90;;;13.65;100.00;97521.84;10287863;28;98238;-84
2023/10/27 12:45:39;;;;;;;0.30;0.30;;;15.10;99.90;;;13.53;100.00;97531.06;10330414;28;96619;-84
2023/10/27 12:50:44;;;;;;;2.78;1.33;;;15.00;99.90;;;13.35;100.00;97546.34;10288733;28;96660;-85
2023/10/27 12:55:48;;;;;;;0.77;0.40;;;14.80;99.90;;;13.19;100.00;97536.53;10330984;28;97097;-84
2023/10/27 13:00:53;;;;;;;1.80;1.00;;;14.60;99.90;;;13.01;100.00;97510.19;10330800;28;96520;-85
2023/10/27 13:05:56;;;;;;;2.50;0.30;;;14.50;99.90;;;12.83;100.00;97577.94;10332846;28;97523;-84
2023/10/27 13:11:04;;;;;;;1.30;0.70;;;14.30;99.90;;;12.71;100.00;97588.69;10355517;28;96607;-84
2023/10/27 13:16:13;;;;;;;0.68;0.50;;;14.10;99.90;;;12.61;100.00;97587.75;10326270;28;97164;-83
2023/10/27 13:21:18;;;;;;;0.40;0.30;;;14.10;99.90;;;12.53;100.00;97491.22;10321667;28;96589;-84
2023/10/27 13:26:22;;;;;;;2.70;0.90;;;14.00;99.90;;;12.46;100.00;97633.59;10325822;28;97203;-84
2023/10/27 13:31:26;;;;;;;1.70;0.60;;;14.00;99.90;;;12.39;100.00;97617.78;10329007;28;96603;-83
2023/10/27 13:36:31;;;;;;;0.80;0.47;;;13.90;99.90;;;12.30;100.00;97633.38;10334618;28;96564;-83
2023/10/27 13:41:35;;;;;;;2.53;1.43;;;13.80;99.90;;;12.23;100.00;97645.19;10307464;28;96686;-84
2023/10/27 13:46:39;;;;;;;1.70;0.80;;;13.70;99.90;;;12.17;100.00;97631.00;10344581;28;96636;-83
2023/10/27 13:51:43;;;;;;;1.43;0.73;;;13.70;99.90;;;12.12;100.00;97625.59;10337574;28;100205;-84
2023/10/27 13:56:46;;;;;;;1.53;0.60;;;13.60;99.90;;;12.09;100.00;97649.22;10321665;28;96958;-83
2023/10/27 14:01:50;;;;;;;2.10;1.30;;;13.60;99.90;;;12.09;100.00;97651.88;10325489;28;96908;-83
2023/10/27 14:06:56;;;;;;;4.43;2.70;;;13.60;99.90;;;12.10;100.00;97674.78;10361457;28;97498;-84
2023/10/27 14:12:00;;;;;;;1.33;0.80;;;13.60;99.90;;;12.10;100.00;97699.56;10345738;28;96696;-83
2023/10/27 14:17:04;;;;;;;0.30;0.30;;;13.60;99.90;;;12.11;100.00;97716.34;10360175;28;96868;-82
2023/10/27 14:22:08;;;;;;;1.33;0.60;;;13.60;99.90;;;12.10;100.00;97725.38;10331214;28;96655;-83
2023/10/27 14:27:12;;;;;;;2.27;1.13;;;13.60;99.90;;;12.11;100.00;97743.75;10343292;28;97568;-83
2023/10/27 14:32:16;;;;;;;1.13;0.60;;;13.60;99.90;;;12.07;100.00;97729.31;10333564;28;96656;-86
2023/10/27 14:37:20;;;;;;;2.20;0.80;;;13.50;99.90;;;12.09;100.00;97732.56;10300342;28;96753;-83
2023/10/27 14:42:23;;;;;;;1.93;1.13;;;13.50;99.90;;;12.10;100.00;97744.81;10331038;28;96548;-84
2023/10/27 14:47:27;;;;;;;0.53;0.20;;;13.50;99.90;;;12.09;100.00;97756.50;10341294;28;98147;-83
2023/10/27 14:52:49;;;;;;;1.57;0.90;;;13.50;99.90;;;12.12;100.00;97771.22;10320968;28;97099;-83
2023/10/27 14:57:53;;;;;;;2.37;0.57;;;13.60;99.90;;;12.10;100.00;97792.72;10335072;28;96489;-83
2023/10/27 15:02:57;;;;;;;1.00;0.50;;;13.50;99.90;;;12.12;100.00;97819.13;10327111;28;96790;-83
2023/10/27 15:08:00;;;;;;;1.67;0.70;;;13.60;99.90;;;12.08;100.00;97829.44;10347569;28;97391;-84
2023/10/27 15:13:05;;;;;;;1.70;0.90;;;13.50;99.90;;;12.08;100.00;97853.38;10310361;28;96815;-84
2023/10/27 15:18:08;;;;;;;2.03;0.80;;;13.50;99.90;;;12.08;100.00;97845.41;10310615;28;96411;-84
2023/10/27 15:23:13;;;;;;;0.77;0.60;;;13.50;99.90;;;12.06;100.00;97847.50;10314924;28;96534;-83
2023/10/27 15:28:17;;;;;;;3.50;1.70;;;13.50;99.90;;;12.04;100.00;97877.00;10295771;28;96753;-83
2023/10/27 15:33:22;;;;;;;1.67;0.50;;;13.50;99.90;;;12.01;100.00;97872.16;10334264;28;96648;-84
2023/10/27 15:38:26;;;;;;;1.00;0.50;;;13.50;99.90;;;12.01;100.00;97882.81;10329134;28;96732;-82
2023/10/27 15:43:32;;;;;;;1.30;0.50;;;13.40;99.90;;;12.03;100.00;97882.56;10344610;28;96478;-82
2023/10/27 15:48:36;;;;;;;1.20;0.43;;;13.50;99.90;;;12.02;100.00;97887.06;10374806;28;96511;-82
2023/10/27 15:53:41;;;;;;;1.13;0.90;;;13.50;99.90;;;12.03;100.00;97903.84;10325258;28;96606;-83
2023/10/27 15:58:46;;;;;;;1.70;0.60;;;13.50;99.90;;;12.03;100.00;97927.81;10315793;28;96857;-83
2023/10/27 16:03:50;;;;;;;2.97;0.60;;;13.50;99.90;;;12.03;100.00;97959.75;10330772;28;96633;-84
2023/10/27 16:08:55;;;;;;;0.33;0.30;;;13.50;99.90;;;12.03;100.00;97949.91;10281283;28;96996;-83
2023/10/27 16:14:00;;;;;;;2.33;0.80;;;13.50;99.90;;;12.01;100.00;97989.28;10353432;28;97575;-85
2023/10/27 16:19:04;;;;;;;0.57;0.40;;;13.50;99.90;;;12.01;100.00;97957.34;10322785;28;96844;-84
2023/10/27 16:24:08;;;;;;;3.93;0.80;;;13.50;99.90;;;12.00;100.00;97982.34;10316696;28;97351;-84
2023/10/27 16:29:12;;;;;;;0.80;0.50;;;13.50;99.90;;;12.00;100.00;97997.50;10305974;28;96704;-84
2023/10/27 16:34:16;;;;;;;1.03;0.70;;;13.50;99.90;;;11.97;100.00;98004.06;10301102;28;96754;-84
2023/10/27 16:39:22;;;;;;;1.13;0.80;;;13.50;99.90;;;11.97;100.00;98037.88;10291362;28;97200;-86
2023/10/27 16:44:28;;;;;;;2.20;0.70;;;13.40;99.90;;;11.95;100.00;98040.75;10323048;28;96567;-87
2023/10/27 16:49:32;;;;;;;2.53;0.87;;;13.50;99.90;;;11.94;100.00;98056.97;10300519;28;98319;-83
2023/10/27 16:54:35;;;;;;;2.43;1.27;;;13.40;99.90;;;11.91;100.00;98063.53;10337143;28;96696;-83
2023/10/27 16:59:46;;;;;;;1.70;0.83;;;13.40;99.90;;;11.93;100.00;98076.63;10307307;28;96601;-83
2023/10/27 17:04:52;;;;;;;2.30;1.10;;;13.40;99.90;;;11.94;100.00;98088.91;10325167;28;98411;-83
2023/10/27 17:10:03;;;;;;;2.07;1.10;;;13.50;99.90;;;11.91;100.00;98106.13;10325199;28;96536;-83
2023/10/27 17:15:07;;;;;;;1.30;0.80;;;13.40;99.90;;;11.87;100.00;98115.59;10306842;28;96927;-83
2023/10/27 17:20:11;;;;;;;3.00;1.37;;;13.40;99.90;;;11.84;100.00;98126.72;10328730;28;96658;-83
2023/10/27 17:25:21;;;;;;;1.87;0.83;;;13.40;99.90;;;11.84;100.00;98123.25;10346700;28;96880;-83
2023/10/27 17:30:25;;;;;;;1.80;0.83;;;13.30;99.90;;;11.80;100.00;98134.28;10328240;28;96670;-83
2023/10/27 17:35:29;;;;;;;0.60;0.50;;;13.30;99.90;;;11.80;100.00;98147.59;10340531;28;96519;-82
2023/10/27 17:40:39;;;;;;;0.97;0.77;;;13.30;99.90;;;11.80;100.00;98157.44;10317306;28;98603;-83
2023/10/27 17:45:44;;;;;;;2.72;1.25;;;13.30;99.90;;;11.76;100.00;98162.41;10317300;28;96947;-83
2023/10/27 17:50:48;;;;;;;2.23;1.40;;;13.30;99.90;;;11.71;100.00;98159.59;10331025;28;97597;-83
2023/10/27 17:55:54;;;;;;;1.97;1.17;;;13.20;99.90;;;11.68;100.00;98176.00;10361488;28;97806;-83
2023/10/27 18:01:07;;;;;;;1.63;1.00;;;13.20;99.90;;;11.65;100.00;98219.03;10345922;28;97653;-82
2023/10/27 18:06:15;;;;;;;1.43;0.90;;;13.20;99.90;;;11.62;100.00;98222.13;10344923;28;96901;-82
2023/10/27 18:11:25;;;;;;;1.50;1.00;;;13.10;99.90;;;11.57;100.00;98231.81;10316164;28;98221;-82
2023/10/27 18:16:35;;;;;;;2.50;0.70;;;13.10;99.90;;;11.55;100.00;98228.56;10340187;28;96633;-81
2023/10/27 18:21:38;;;;;;;1.27;0.73;;;13.00;99.90;;;11.51;100.00;98234.34;10335709;28;96668;-83
2023/10/27 18:26:44;;;;;;;1.63;0.90;;;13.00;99.90;;;11.52;100.00;98251.91;10304790;28;98150;-81
2023/10/27 18:31:51;;;;;;;1.80;0.63;;;13.00;99.90;;;11.51;100.00;98242.31;10341728;28;98558;-81
2023/10/27 18:36:55;;;;;;;1.97;0.60;;;13.00;99.90;;;11.46;100.00;98252.81;10316700;28;98361;-81
2023/10/27 18:41:59;;;;;;;1.60;1.00;;;13.00;99.90;;;11.47;100.00;98257.09;10303584;28;96682;-81
2023/10/27 18:47:03;;;;;;;1.67;0.70;;;13.00;99.90;;;11.45;100.00;98266.28;10317987;28;97651;-81
2023/10/27 18:52:06;;;;;;;2.67;0.70;;;13.00;99.90;;;11.41;100.00;98273.13;10318469;28;96695;-81
2023/10/27 18:57:12;;;;;;;1.70;0.90;;;12.90;99.90;;;11.40;100.00;98290.09;10329599;28;96999;-81
2023/10/27 19:02:16;;;;;;;1.47;0.90;;;12.90;99.90;;;11.36;100.00;98288.91;10306692;28;98111;-81
2023/10/27 19:07:23;;;;;;;1.57;0.53;;;12.90;99.90;;;11.35;100.00;98305.91;10320410;28;98489;-80
2023/10/27 19:12:28;;;;;;;4.83;0.87;;;12.90;99.90;;;11.35;100.00;98311.22;10342635;28;100270;-81
2023/10/27 19:17:41;;;;;;;1.87;0.60;;;12.90;99.90;;;11.32;100.00;98320.44;10333384;28;98628;-81
2023/10/27 19:22:46;;;;;;;1.10;0.50;;;12.90;99.90;;;11.33;100.00;98334.53;10309143;28;96812;-81
2023/10/27 19:27:50;;;;;;;1.60;0.50;;;12.90;99.90;;;11.36;100.00;98353.53;10305701;28;97647;-81
2023/10/27 19:32:55;;;;;;;0.90;0.40;;;12.90;99.90;;;11.37;100.00;98371.13;10326873;28;98422;-82
2023/10/27 19:37:58;;;;;;;0.50;0.30;;;12.90;99.90;;;11.34;100.00;98360.94;10334239;28;98326;-81
2023/10/27 19:43:02;;;;;;;1.40;0.50;;;12.90;99.90;;;11.32;100.00;98372.81;10324471;28;96699;-81
2023/10/27 19:48:06;;;;;;;0.60;0.37;;;12.90;99.90;;;11.24;100.00;98387.19;10297499;28;97053;-82
2023/10/27 19:53:16;;;;;;;1.30;0.47;;;12.90;99.90;;;11.21;100.00;98376.97;10314770;28;97283;-82
2023/10/27 20:05:54;;;;;;;;;;;;;;;;;;;;;
2023/10/27 20:19:28;;;;;;;1.27;0.60;;;12.70;99.90;;;10.98;100.00;98460.75;9923994;29;99129;-81
2023/10/27 20:39:30;;;;;;;;;;;;;;;;;;;;;
2023/10/27 20:53:45;;;;;;;;;;;;;;;;;;;;;
2023/10/27 20:59:35;;;;;;;0.30;0.10;;;12.40;99.90;;;10.74;100.00;98530.56;9922640;29;98346;-81
2023/10/27 21:04:57;;;;;;;0.73;0.20;;;12.40;99.90;;;10.74;100.00;98533.22;9966283;29;96838;-81
2023/10/27 21:10:20;;;;;;;0.53;0.30;;;12.40;99.90;;;10.75;100.00;98531.38;10282153;28;96707;-81
2023/10/27 21:16:01;;;;;;;;;;;;;;;;;;;;;
2023/10/27 21:35:25;;;;;;;0.50;0.20;;;12.40;99.90;;;10.79;100.00;98557.31;9989953;29;97650;-81
2023/10/27 21:40:29;;;;;;;0.60;0.30;;;12.50;99.90;;;10.82;100.00;98558.75;10148535;28;99154;-81
2023/10/27 21:45:32;;;;;;;0.60;0.17;;;12.50;99.90;;;10.78;100.00;98576.94;10165368;28;97771;-81
2023/10/27 21:50:38;;;;;;;0.30;0.17;;;12.50;99.90;;;10.75;100.00;98587.19;10149022;28;96824;-81
2023/10/27 21:55:42;;;;;;;0.60;0.50;;;12.50;99.90;;;10.72;100.00;98593.72;10164519;28;96928;-81
2023/10/27 22:00:46;;;;;;;1.80;0.40;;;12.40;99.90;;;10.70;100.00;98598.44;10157425;28;96557;-80